createdAt,value
2022-12-31T00:02:30.169Z,98463.00
2022-12-31T00:05:01.115Z,98459.00
2022-12-31T00:10:06.213Z,98461.00
2022-12-31T00:12:37.118Z,98474.00
2022-12-31T00:15:10.931Z,98471.00
2022-12-31T00:17:41.953Z,98468.00
2022-12-31T00:20:12.838Z,98472.00
2022-12-31T00:22:43.755Z,98486.00
2022-12-31T00:25:14.723Z,98470.00
2022-12-31T00:27:45.646Z,98474.00
2022-12-31T00:30:16.708Z,98493.00
2022-12-31T00:32:47.565Z,98482.00
2022-12-31T00:35:18.539Z,98485.00
2022-12-31T00:37:53.261Z,98490.00
2022-12-31T00:40:24.145Z,98497.00
2022-12-31T00:42:55.015Z,98493.00
2022-12-31T00:45:25.890Z,98498.00
2022-12-31T00:47:56.822Z,98497.00
2022-12-31T00:50:27.666Z,98497.00
2022-12-31T00:52:58.562Z,98501.00
2022-12-31T00:55:31.037Z,98511.00
2022-12-31T00:58:01.982Z,98513.00
2022-12-31T01:00:32.960Z,98515.00
2022-12-31T01:03:04.722Z,98512.00
2022-12-31T01:05:37.138Z,98521.00
2022-12-31T01:08:08.040Z,98526.00
2022-12-31T01:10:57.639Z,98523.00
2022-12-31T01:13:28.497Z,98522.00
2022-12-31T01:15:59.439Z,98535.00
2022-12-31T01:18:30.313Z,98540.00
2022-12-31T01:21:07.784Z,98545.00
2022-12-31T01:23:39.247Z,98547.00
2022-12-31T01:26:12.850Z,98554.00
2022-12-31T01:28:43.913Z,98559.00
2022-12-31T01:31:18.366Z,98566.00
2022-12-31T01:33:50.048Z,98571.00
2022-12-31T01:36:26.593Z,98570.00
2022-12-31T01:39:01.324Z,98569.00
2022-12-31T01:41:41.973Z,98577.00
2022-12-31T01:44:12.877Z,98574.00
2022-12-31T01:46:53.233Z,98570.00
2022-12-31T01:49:35.081Z,98577.00
2022-12-31T01:52:12.796Z,98579.00
2022-12-31T01:54:56.328Z,98582.00
2022-12-31T01:57:27.759Z,98607.00
2022-12-31T02:00:00.920Z,98579.00
2022-12-31T02:02:32.573Z,98585.00
2022-12-31T02:05:31.515Z,98606.00
2022-12-31T02:08:03.597Z,98617.00
2022-12-31T02:10:34.860Z,98593.00
2022-12-31T02:13:06.059Z,98587.00
2022-12-31T02:16:00.217Z,98599.00
2022-12-31T02:18:57.434Z,98598.00
2022-12-31T02:21:40.511Z,98603.00
2022-12-31T02:24:44.739Z,98597.00
2022-12-31T02:27:39.108Z,98610.00
2022-12-31T02:30:15.436Z,98599.00
2022-12-31T02:33:17.101Z,98602.00
2022-12-31T02:36:06.226Z,98600.00
2022-12-31T02:38:42.695Z,98614.00
2022-12-31T02:41:36.163Z,98599.00
2022-12-31T02:44:29.126Z,98612.00
2022-12-31T02:47:08.705Z,98603.00
2022-12-31T02:50:14.014Z,98591.00
2022-12-31T02:53:05.905Z,98593.00
2022-12-31T02:56:04.179Z,98587.00
2022-12-31T02:59:23.646Z,98594.00
2022-12-31T03:02:16.568Z,98594.00
2022-12-31T03:04:56.769Z,98581.00
2022-12-31T03:07:31.957Z,98605.00
2022-12-31T03:10:03.057Z,98581.00
2022-12-31T03:12:47.929Z,98580.00
2022-12-31T03:15:24.893Z,98589.00
2022-12-31T03:18:14.790Z,98589.00
2022-12-31T03:21:10.032Z,98584.00
2022-12-31T03:23:50.259Z,98588.00
2022-12-31T03:26:21.164Z,98595.00
2022-12-31T03:28:52.026Z,98586.00
2022-12-31T03:31:22.970Z,98590.00
2022-12-31T03:33:53.963Z,98589.00
2022-12-31T03:36:24.881Z,98602.00
2022-12-31T03:38:55.809Z,98612.00
2022-12-31T03:41:26.723Z,98617.00
2022-12-31T03:43:57.587Z,98622.00
2022-12-31T03:46:28.530Z,98610.00
2022-12-31T03:48:59.383Z,98620.00
2022-12-31T03:51:30.291Z,98604.00
2022-12-31T03:54:01.155Z,98620.00
2022-12-31T03:56:32.048Z,98623.00
2022-12-31T03:59:02.925Z,98628.00
2022-12-31T04:01:33.992Z,98622.00
2022-12-31T04:04:04.959Z,98614.00
2022-12-31T04:06:35.851Z,98615.00
2022-12-31T04:09:06.710Z,98627.00
2022-12-31T04:11:37.610Z,98638.00
2022-12-31T04:14:08.628Z,98615.00
2022-12-31T04:16:39.552Z,98624.00
2022-12-31T04:19:11.954Z,98631.00
2022-12-31T04:21:42.890Z,98625.00
2022-12-31T04:24:13.772Z,98648.00
2022-12-31T04:26:44.735Z,98618.00
2022-12-31T04:29:15.708Z,98619.00
2022-12-31T04:31:46.665Z,98618.00
2022-12-31T04:34:17.634Z,98618.00
2022-12-31T04:36:48.577Z,98613.00
2022-12-31T04:39:19.540Z,98615.00
2022-12-31T04:41:51.216Z,98623.00
2022-12-31T04:44:22.419Z,98627.00
2022-12-31T04:46:55.824Z,98635.00
2022-12-31T04:49:26.711Z,98642.00
2022-12-31T04:51:57.598Z,98648.00
2022-12-31T04:54:28.480Z,98637.00
2022-12-31T04:56:59.401Z,98639.00
2022-12-31T04:59:30.352Z,98653.00
2022-12-31T05:02:01.408Z,98663.00
2022-12-31T05:04:32.454Z,98646.00
2022-12-31T05:07:03.485Z,98651.00
2022-12-31T05:09:34.650Z,98672.00
2022-12-31T05:12:06.034Z,98663.00
2022-12-31T05:14:39.721Z,98653.00
2022-12-31T05:17:10.627Z,98665.00
2022-12-31T05:19:41.505Z,98680.00
2022-12-31T05:22:30.884Z,98668.00
2022-12-31T05:25:01.841Z,98680.00
2022-12-31T05:27:33.006Z,98685.00
2022-12-31T05:30:06.455Z,98664.00
2022-12-31T05:32:37.812Z,98663.00
2022-12-31T05:35:09.378Z,98672.00
2022-12-31T05:37:40.377Z,98677.00
2022-12-31T05:40:12.804Z,98683.00
2022-12-31T05:42:44.027Z,98671.00
2022-12-31T05:45:15.489Z,98680.00
2022-12-31T05:47:46.535Z,98677.00
2022-12-31T05:50:17.760Z,98676.00
2022-12-31T05:52:48.731Z,98680.00
2022-12-31T05:55:19.651Z,98693.00
2022-12-31T05:57:50.504Z,98700.00
2022-12-31T06:00:21.606Z,98710.00
2022-12-31T06:02:52.521Z,98694.00
2022-12-31T06:05:26.269Z,98702.00
2022-12-31T06:07:57.718Z,98699.00
2022-12-31T06:10:28.676Z,98702.00
2022-12-31T06:12:59.639Z,98711.00
2022-12-31T06:15:30.729Z,98710.00
2022-12-31T06:18:01.647Z,98709.00
2022-12-31T06:20:32.584Z,98715.00
2022-12-31T06:23:04.317Z,98704.00
2022-12-31T06:25:37.067Z,98708.00
2022-12-31T06:28:10.370Z,98696.00
2022-12-31T06:30:44.254Z,98708.00
2022-12-31T06:33:15.213Z,98713.00
2022-12-31T06:35:46.157Z,98711.00
2022-12-31T06:38:17.018Z,98703.00
2022-12-31T06:40:47.959Z,98708.00
2022-12-31T06:43:19.197Z,98715.00
2022-12-31T06:45:50.164Z,98710.00
2022-12-31T06:48:21.020Z,98720.00
2022-12-31T06:50:51.908Z,98711.00
2022-12-31T06:53:22.803Z,98711.00
2022-12-31T06:55:54.084Z,98703.00
2022-12-31T06:58:25.313Z,98692.00
2022-12-31T07:01:40.103Z,98695.00
2022-12-31T07:04:38.285Z,98699.00
2022-12-31T07:07:22.096Z,98704.00
2022-12-31T07:10:07.906Z,98710.00
2022-12-31T07:13:30.141Z,98705.00
2022-12-31T07:16:06.914Z,98719.00
2022-12-31T07:18:48.268Z,98724.00
2022-12-31T07:21:35.890Z,98728.00
2022-12-31T07:24:09.674Z,98728.00
2022-12-31T07:26:56.545Z,98739.00
2022-12-31T07:29:41.088Z,98737.00
2022-12-31T07:32:50.335Z,98738.00
2022-12-31T07:35:35.047Z,98739.00
2022-12-31T07:38:24.948Z,98720.00
2022-12-31T07:41:17.273Z,98732.00
2022-12-31T07:44:03.962Z,98743.00
2022-12-31T07:46:40.532Z,98738.00
2022-12-31T07:49:13.360Z,98733.00
2022-12-31T07:51:47.648Z,98730.00
2022-12-31T07:54:18.557Z,98734.00
2022-12-31T07:56:51.092Z,98738.00
2022-12-31T07:59:55.656Z,98751.00
2022-12-31T08:03:03.069Z,98747.00
2022-12-31T08:06:11.045Z,98755.00
2022-12-31T08:08:47.420Z,98751.00
2022-12-31T08:11:41.876Z,98754.00
2022-12-31T08:14:14.180Z,98774.00
2022-12-31T08:16:45.643Z,98765.00
2022-12-31T08:19:30.715Z,98771.00
2022-12-31T08:22:19.498Z,98768.00
2022-12-31T08:25:14.960Z,98779.00
2022-12-31T08:28:14.228Z,98772.00
2022-12-31T08:31:09.032Z,98791.00
2022-12-31T08:34:06.137Z,98757.00
2022-12-31T08:37:13.802Z,98769.00
2022-12-31T08:40:15.698Z,98774.00
2022-12-31T08:43:11.569Z,98784.00
2022-12-31T08:45:50.191Z,98788.00
2022-12-31T08:48:37.029Z,98792.00
2022-12-31T08:51:18.084Z,98797.00
2022-12-31T08:53:53.445Z,98800.00
2022-12-31T08:56:50.623Z,98811.00
2022-12-31T08:59:53.377Z,98847.00
2022-12-31T09:02:44.630Z,98826.00
2022-12-31T09:05:47.609Z,98830.00
2022-12-31T09:08:33.443Z,98832.00
2022-12-31T09:11:31.001Z,98819.00
2022-12-31T09:14:21.848Z,98826.00
2022-12-31T09:17:31.587Z,98836.00
2022-12-31T09:20:03.197Z,98837.00
2022-12-31T09:22:34.320Z,98838.00
2022-12-31T09:25:05.825Z,98834.00
2022-12-31T09:28:06.835Z,98834.00
2022-12-31T09:30:54.505Z,98814.00
2022-12-31T09:33:52.833Z,98823.00
2022-12-31T09:36:32.268Z,98825.00
2022-12-31T09:39:46.855Z,98829.00
2022-12-31T09:42:53.044Z,98823.00
2022-12-31T09:46:05.917Z,98842.00
2022-12-31T09:49:38.100Z,98837.00
2022-12-31T09:52:43.791Z,98833.00
2022-12-31T09:55:36.077Z,98837.00
2022-12-31T09:58:41.522Z,98851.00
2022-12-31T10:01:49.848Z,98842.00
2022-12-31T10:04:45.087Z,98826.00
2022-12-31T10:07:31.921Z,98820.00
2022-12-31T10:10:11.881Z,98822.00
2022-12-31T10:13:06.813Z,98822.00
2022-12-31T10:15:54.341Z,98825.00
2022-12-31T10:19:12.820Z,98821.00
2022-12-31T10:22:19.891Z,98812.00
2022-12-31T10:25:55.104Z,98809.00
2022-12-31T10:28:51.403Z,98799.00
2022-12-31T10:31:49.503Z,98806.00
2022-12-31T10:34:34.263Z,98828.00
2022-12-31T10:37:30.004Z,98819.00
2022-12-31T10:40:32.224Z,98823.00
2022-12-31T10:43:24.703Z,98814.00
2022-12-31T10:46:39.033Z,98810.00
2022-12-31T10:49:59.765Z,98799.00
2022-12-31T10:53:07.918Z,98804.00
2022-12-31T10:56:06.372Z,98796.00
2022-12-31T10:59:02.987Z,98792.00
2022-12-31T11:02:04.796Z,98785.00
2022-12-31T11:05:03.180Z,98783.00
2022-12-31T11:08:02.930Z,98781.00
2022-12-31T11:11:19.197Z,98788.00
2022-12-31T11:14:28.257Z,98784.00
2022-12-31T11:17:28.647Z,98775.00
2022-12-31T11:20:20.560Z,98773.00
2022-12-31T11:23:39.499Z,98774.00
2022-12-31T11:26:58.053Z,98781.00
2022-12-31T11:30:11.245Z,98782.00
2022-12-31T11:33:20.600Z,98769.00
2022-12-31T11:36:18.712Z,98773.00
2022-12-31T11:39:31.462Z,98762.00
2022-12-31T11:42:39.516Z,98757.00
2022-12-31T11:45:57.688Z,98756.00
2022-12-31T11:48:45.083Z,98769.00
2022-12-31T11:51:42.195Z,98763.00
2022-12-31T11:54:54.302Z,98752.00
2022-12-31T11:57:27.639Z,98744.00
2022-12-31T12:00:21.712Z,98733.00
2022-12-31T12:02:59.943Z,98734.00
2022-12-31T12:05:31.777Z,98730.00
2022-12-31T12:08:03.337Z,98729.00
2022-12-31T12:10:46.097Z,98735.00
2022-12-31T12:13:25.422Z,98723.00
2022-12-31T12:16:03.153Z,98740.00
2022-12-31T12:18:45.376Z,98734.00
2022-12-31T12:21:17.496Z,98729.00
2022-12-31T12:23:58.684Z,98734.00
2022-12-31T12:26:41.592Z,98724.00
2022-12-31T12:29:22.130Z,98732.00
2022-12-31T12:32:15.381Z,98724.00
2022-12-31T12:34:49.852Z,98714.00
2022-12-31T12:37:37.056Z,98711.00
2022-12-31T12:40:29.881Z,98719.00
2022-12-31T12:43:04.273Z,98718.00
2022-12-31T12:45:51.761Z,98716.00
2022-12-31T12:48:42.457Z,98716.00
2022-12-31T12:51:47.793Z,98716.00
2022-12-31T12:55:05.944Z,98713.00
2022-12-31T12:58:07.446Z,98720.00
2022-12-31T13:01:38.664Z,98706.00
2022-12-31T13:04:43.818Z,98709.00
2022-12-31T13:07:35.177Z,98734.00
2022-12-31T13:10:16.238Z,98712.00
2022-12-31T13:13:25.646Z,98700.00
2022-12-31T13:16:07.151Z,98704.00
2022-12-31T13:19:11.875Z,98703.00
2022-12-31T13:22:09.305Z,98706.00
2022-12-31T13:24:59.618Z,98700.00
2022-12-31T13:27:44.860Z,98690.00
2022-12-31T13:30:45.976Z,98687.00
2022-12-31T13:33:26.207Z,98697.00
2022-12-31T13:35:59.333Z,98690.00
2022-12-31T13:38:39.333Z,98694.00
2022-12-31T13:41:21.715Z,98691.00
2022-12-31T13:44:23.952Z,98684.00
2022-12-31T13:47:10.300Z,98674.00
2022-12-31T13:49:48.978Z,98685.00
2022-12-31T13:52:55.125Z,98679.00
2022-12-31T13:55:56.447Z,98682.00
2022-12-31T13:58:40.889Z,98681.00
2022-12-31T14:01:33.613Z,98679.00
2022-12-31T14:04:33.144Z,98689.00
2022-12-31T14:07:27.821Z,98679.00
2022-12-31T14:10:01.740Z,98677.00
2022-12-31T14:13:17.167Z,98670.00
2022-12-31T14:16:06.693Z,98677.00
2022-12-31T14:19:32.461Z,98672.00
2022-12-31T14:22:44.061Z,98674.00
2022-12-31T14:25:41.821Z,98681.00
2022-12-31T14:28:53.364Z,98678.00
2022-12-31T14:32:26.549Z,98693.00
2022-12-31T14:35:37.500Z,98691.00
2022-12-31T14:38:33.880Z,98694.00
2022-12-31T14:41:54.477Z,98691.00
2022-12-31T14:44:45.814Z,98693.00
2022-12-31T14:47:54.038Z,98702.00
2022-12-31T14:50:30.370Z,98701.00
2022-12-31T14:53:04.311Z,98707.00
2022-12-31T14:55:43.496Z,98706.00
2022-12-31T14:58:32.688Z,98707.00
2022-12-31T15:01:22.316Z,98708.00
2022-12-31T15:03:58.245Z,98711.00
2022-12-31T15:06:50.462Z,98713.00
2022-12-31T15:10:05.906Z,98712.00
2022-12-31T15:13:12.912Z,98724.00
2022-12-31T15:16:31.867Z,98725.00
2022-12-31T15:19:24.267Z,98714.00
2022-12-31T15:22:03.177Z,98717.00
2022-12-31T15:24:34.140Z,98712.00
2022-12-31T15:27:07.042Z,98705.00
2022-12-31T15:29:45.444Z,98718.00
2022-12-31T15:32:25.291Z,98717.00
2022-12-31T15:35:23.935Z,98716.00
2022-12-31T15:38:37.725Z,98714.00
2022-12-31T15:41:27.302Z,98716.00
2022-12-31T15:44:25.568Z,98721.00
2022-12-31T15:47:09.302Z,98719.00
2022-12-31T15:49:45.806Z,98720.00
2022-12-31T15:52:25.691Z,98722.00
2022-12-31T15:54:58.181Z,98736.00
2022-12-31T15:57:39.082Z,98736.00
2022-12-31T16:00:22.927Z,98734.00
2022-12-31T16:02:55.456Z,98740.00
2022-12-31T16:05:27.936Z,98745.00
2022-12-31T16:08:00.296Z,98754.00
2022-12-31T16:10:32.920Z,98745.00
2022-12-31T16:13:06.222Z,98753.00
2022-12-31T16:15:37.363Z,98746.00
2022-12-31T16:18:20.630Z,98757.00
2022-12-31T16:20:54.406Z,98759.00
2022-12-31T16:23:27.809Z,98764.00
2022-12-31T16:26:02.174Z,98766.00
2022-12-31T16:28:34.394Z,98763.00
2022-12-31T16:31:18.109Z,98766.00
2022-12-31T16:33:49.134Z,98765.00
2022-12-31T16:36:24.391Z,98765.00
2022-12-31T16:39:29.591Z,98771.00
2022-12-31T16:42:18.357Z,98772.00
2022-12-31T16:44:51.866Z,98764.00
2022-12-31T16:47:35.974Z,98765.00
2022-12-31T16:50:21.026Z,98768.00
2022-12-31T16:53:00.187Z,98764.00
2022-12-31T16:55:32.755Z,98760.00
2022-12-31T16:58:19.942Z,98767.00
2022-12-31T17:00:51.942Z,98758.00
2022-12-31T17:03:25.285Z,98756.00
2022-12-31T17:06:06.662Z,98761.00
2022-12-31T17:08:50.083Z,98760.00
2022-12-31T17:11:31.663Z,98762.00
2022-12-31T17:14:11.667Z,98769.00
2022-12-31T17:17:04.263Z,98768.00
2022-12-31T17:19:47.385Z,98778.00
2022-12-31T17:22:37.290Z,98776.00
2022-12-31T17:25:28.130Z,98785.00
2022-12-31T17:28:22.466Z,98787.00
2022-12-31T17:31:33.997Z,98781.00
2022-12-31T17:34:14.222Z,98781.00
2022-12-31T17:37:06.325Z,98787.00
2022-12-31T17:39:53.051Z,98785.00
2022-12-31T17:42:40.403Z,98792.00
2022-12-31T17:45:22.152Z,98793.00
2022-12-31T17:47:55.602Z,98792.00
2022-12-31T17:50:28.027Z,98798.00
2022-12-31T17:53:18.050Z,98802.00
2022-12-31T17:55:52.653Z,98801.00
2022-12-31T17:58:45.877Z,98798.00
2022-12-31T18:01:23.408Z,98809.00
2022-12-31T18:03:54.621Z,98812.00
2022-12-31T18:06:27.235Z,98809.00
2022-12-31T18:08:58.129Z,98811.00
2022-12-31T18:11:29.439Z,98804.00
2022-12-31T18:14:00.318Z,98804.00
2022-12-31T18:16:31.378Z,98806.00
2022-12-31T18:19:02.384Z,98803.00
2022-12-31T18:21:34.862Z,98797.00
2022-12-31T18:24:06.725Z,98803.00
2022-12-31T18:26:37.612Z,98819.00
2022-12-31T18:29:17.526Z,98811.00
2022-12-31T18:31:50.101Z,98832.00
2022-12-31T18:34:21.115Z,98805.00
2022-12-31T18:36:52.060Z,98810.00
2022-12-31T18:39:23.002Z,98820.00
2022-12-31T18:41:53.894Z,98817.00
2022-12-31T18:44:25.092Z,98816.00
2022-12-31T18:46:56.026Z,98820.00
2022-12-31T18:49:26.924Z,98824.00
2022-12-31T18:51:59.231Z,98825.00
2022-12-31T18:54:30.158Z,98835.00
2022-12-31T18:57:01.105Z,98825.00
2022-12-31T18:59:32.028Z,98827.00
2022-12-31T19:02:03.271Z,98836.00
2022-12-31T19:04:34.205Z,98826.00
2022-12-31T19:07:05.685Z,98830.00
2022-12-31T19:09:46.088Z,98832.00
2022-12-31T19:12:17.808Z,98842.00
2022-12-31T19:14:48.708Z,98842.00
2022-12-31T19:17:21.510Z,98841.00
2022-12-31T19:19:52.382Z,98844.00
2022-12-31T19:22:23.292Z,98849.00
2022-12-31T19:24:54.135Z,98858.00
2022-12-31T19:27:26.868Z,98852.00
2022-12-31T19:29:57.793Z,98858.00
2022-12-31T19:32:29.007Z,98853.00
2022-12-31T19:34:59.904Z,98851.00
2022-12-31T19:37:30.773Z,98850.00
2022-12-31T19:40:01.678Z,98850.00
2022-12-31T19:42:32.567Z,98858.00
2022-12-31T19:45:03.835Z,98854.00
2022-12-31T19:47:34.723Z,98886.00
2022-12-31T19:50:06.179Z,98865.00
2022-12-31T19:52:37.558Z,98862.00
2022-12-31T19:55:11.642Z,98864.00
2022-12-31T19:57:42.988Z,98861.00
2022-12-31T20:00:16.619Z,98880.00
2022-12-31T20:02:49.010Z,98860.00
2022-12-31T20:05:20.001Z,98858.00
2022-12-31T20:07:50.975Z,98858.00
2022-12-31T20:10:21.874Z,98887.00
2022-12-31T20:12:52.753Z,98864.00
2022-12-31T20:15:23.648Z,98863.00
2022-12-31T20:17:57.771Z,98865.00
2022-12-31T20:20:31.516Z,98863.00
2022-12-31T20:23:02.717Z,98873.00
2022-12-31T20:25:33.581Z,98871.00
2022-12-31T20:28:04.872Z,98874.00
2022-12-31T20:30:38.916Z,98866.00
2022-12-31T20:33:14.420Z,98873.00
2022-12-31T20:35:48.676Z,98869.00
2022-12-31T20:38:22.547Z,98873.00
2022-12-31T20:40:53.534Z,98869.00
2022-12-31T20:43:24.421Z,98859.00
2022-12-31T20:45:55.329Z,98874.00
2022-12-31T20:48:26.357Z,98866.00
2022-12-31T20:50:58.191Z,98870.00
2022-12-31T20:53:29.116Z,98870.00
2022-12-31T20:56:05.998Z,98870.00
2022-12-31T20:58:36.900Z,98869.00
2022-12-31T21:01:09.791Z,98869.00
2022-12-31T21:06:35.758Z,98894.00
2022-12-31T21:09:08.198Z,98886.00
2022-12-31T21:11:57.441Z,98878.00
2022-12-31T21:14:28.317Z,98880.00
2022-12-31T21:16:59.248Z,98885.00
2022-12-31T21:19:30.114Z,98883.00
2022-12-31T21:22:01.127Z,98890.00
2022-12-31T21:24:32.019Z,98886.00
2022-12-31T21:27:02.961Z,98880.00
2022-12-31T21:29:34.900Z,98892.00
2022-12-31T21:32:06.556Z,98886.00
2022-12-31T21:34:37.575Z,98891.00
2022-12-31T21:37:08.482Z,98886.00
2022-12-31T21:39:39.319Z,98895.00
2022-12-31T21:42:10.205Z,98886.00
2022-12-31T21:44:41.062Z,98891.00
2022-12-31T21:47:35.676Z,98899.00
2022-12-31T21:50:10.221Z,98907.00
2022-12-31T21:52:41.147Z,98905.00
2022-12-31T21:55:45.093Z,98908.00
2022-12-31T21:58:26.467Z,98909.00
2022-12-31T22:01:18.408Z,98908.00
2022-12-31T22:03:49.522Z,98906.00
2022-12-31T22:06:24.836Z,98917.00
2022-12-31T22:08:57.017Z,98918.00
2022-12-31T22:11:28.829Z,98923.00
2022-12-31T22:13:59.830Z,98921.00
2022-12-31T22:16:30.906Z,98922.00
2022-12-31T22:19:01.925Z,98929.00
2022-12-31T22:21:32.933Z,98932.00
2022-12-31T22:24:04.121Z,98936.00
2022-12-31T22:26:35.132Z,98937.00
2022-12-31T22:29:06.080Z,98936.00
2022-12-31T22:31:36.984Z,98939.00
2022-12-31T22:34:08.036Z,98942.00
2022-12-31T22:36:38.967Z,98943.00
2022-12-31T22:39:43.809Z,98936.00
2022-12-31T22:42:06.592Z,98934.00
2022-12-31T22:44:37.530Z,98935.00
2022-12-31T22:47:09.015Z,98941.00
2022-12-31T22:49:39.889Z,98943.00
2022-12-31T22:52:10.862Z,98950.00
2022-12-31T22:54:41.758Z,98968.00
2022-12-31T22:57:17.900Z,98963.00
2022-12-31T22:59:52.076Z,98949.00
2022-12-31T23:02:22.977Z,98975.00
2022-12-31T23:04:53.936Z,98972.00
2022-12-31T23:07:44.784Z,98970.00
2022-12-31T23:10:34.162Z,98978.00
2022-12-31T23:13:23.335Z,98974.00
2022-12-31T23:16:12.673Z,98967.00
2022-12-31T23:19:05.601Z,98965.00
2022-12-31T23:21:55.732Z,98963.00
2022-12-31T23:24:31.588Z,98966.00
2022-12-31T23:27:03.049Z,98968.00
2022-12-31T23:29:34.145Z,98962.00
2022-12-31T23:32:06.802Z,98962.00
2022-12-31T23:34:37.797Z,98959.00
2022-12-31T23:37:08.841Z,98976.00
2022-12-31T23:39:40.109Z,98965.00
2022-12-31T23:42:11.027Z,98973.00
2022-12-31T23:44:42.329Z,98968.00
2022-12-31T23:47:13.575Z,98964.00
2022-12-31T23:49:44.482Z,98980.00
2022-12-31T23:52:15.578Z,98968.00
2022-12-31T23:54:46.480Z,98966.00
2022-12-31T23:57:17.391Z,98965.00
2022-12-31T23:59:48.285Z,98969.00
